sensor_id;sensor_type;location;lat;lon;timestamp;pressure;altitude;pressure_sealevel;temperature;humidity
21826;BME280;11075;47.944;11.776;2022-07-23T00:00:29;94801.53;;;30.52;22.38
21826;BME280;11075;47.944;11.776;2022-07-23T00:03:04;94781.53;;;30.20;22.38
21826;BME280;11075;47.944;11.776;2022-07-23T00:05:31;94768.53;;;27.89;24.54
21826;BME280;11075;47.944;11.776;2022-07-23T00:08:00;94779.38;;;29.97;22.57
21826;BME280;11075;47.944;11.776;2022-07-23T00:10:27;94749.91;;;28.55;23.98
21826;BME280;11075;47.944;11.776;2022-07-23T00:12:53;94739.91;;;28.27;24.27
21826;BME280;11075;47.944;11.776;2022-07-23T00:15:20;94741.47;;;28.99;23.59
21826;BME280;11075;47.944;11.776;2022-07-23T00:17:47;94735.00;;;28.31;24.21
21826;BME280;11075;47.944;11.776;2022-07-23T00:20:14;94739.91;;;27.01;25.34
21826;BME280;11075;47.944;11.776;2022-07-23T00:22:49;94742.38;;;28.55;23.75
21826;BME280;11075;47.944;11.776;2022-07-23T00:25:18;94745.13;;;27.81;24.76
21826;BME280;11075;47.944;11.776;2022-07-23T00:27:55;94741.53;;;28.15;24.28
21826;BME280;11075;47.944;11.776;2022-07-23T00:30:23;94737.00;;;27.86;24.21
21826;BME280;11075;47.944;11.776;2022-07-23T00:35:24;94768.88;;;30.01;21.88
21826;BME280;11075;47.944;11.776;2022-07-23T00:37:51;94765.66;;;29.93;21.87
21826;BME280;11075;47.944;11.776;2022-07-23T00:40:19;94765.53;;;29.11;23.08
21826;BME280;11075;47.944;11.776;2022-07-23T00:42:46;94765.28;;;29.27;22.82
21826;BME280;11075;47.944;11.776;2022-07-23T00:45:13;94756.97;;;27.47;24.68
21826;BME280;11075;47.944;11.776;2022-07-23T00:47:40;94768.09;;;27.56;25.19
21826;BME280;11075;47.944;11.776;2022-07-23T00:50:08;94754.97;;;26.87;24.81
21826;BME280;11075;47.944;11.776;2022-07-23T00:52:36;94774.25;;;28.07;23.91
21826;BME280;11075;47.944;11.776;2022-07-23T00:55:05;94753.28;;;26.64;24.91
21826;BME280;11075;47.944;11.776;2022-07-23T00:57:33;94768.66;;;27.51;24.06
21826;BME280;11075;47.944;11.776;2022-07-23T00:59:59;94757.81;;;27.22;24.10
21826;BME280;11075;47.944;11.776;2022-07-23T01:02:27;94782.56;;;27.73;23.85
21826;BME280;11075;47.944;11.776;2022-07-23T01:04:54;94781.47;;;26.72;25.25
21826;BME280;11075;47.944;11.776;2022-07-23T01:07:21;94805.97;;;28.37;23.23
21826;BME280;11075;47.944;11.776;2022-07-23T01:09:49;94769.06;;;25.97;25.61
21826;BME280;11075;47.944;11.776;2022-07-23T01:12:18;94802.56;;;26.66;24.71
21826;BME280;11075;47.944;11.776;2022-07-23T01:14:45;94821.75;;;27.58;23.88
21826;BME280;11075;47.944;11.776;2022-07-23T01:17:12;94820.69;;;27.18;24.28
21826;BME280;11075;47.944;11.776;2022-07-23T01:19:39;94828.25;;;25.47;24.94
21826;BME280;11075;47.944;11.776;2022-07-23T01:22:06;94868.94;;;27.04;24.14
21826;BME280;11075;47.944;11.776;2022-07-23T01:24:33;94867.13;;;25.36;25.62
21826;BME280;11075;47.944;11.776;2022-07-23T01:27:05;94916.09;;;26.43;24.12
21826;BME280;11075;47.944;11.776;2022-07-23T01:29:35;94922.47;;;25.78;25.26
21826;BME280;11075;47.944;11.776;2022-07-23T01:32:06;94922.03;;;25.96;24.08
21826;BME280;11075;47.944;11.776;2022-07-23T01:34:34;94922.88;;;25.44;25.39
21826;BME280;11075;47.944;11.776;2022-07-23T01:37:01;94929.06;;;25.32;25.19
21826;BME280;11075;47.944;11.776;2022-07-23T01:39:28;94925.66;;;26.09;24.63
21826;BME280;11075;47.944;11.776;2022-07-23T01:41:55;94919.81;;;25.58;24.69
21826;BME280;11075;47.944;11.776;2022-07-23T01:44:23;94948.06;;;26.11;24.05
21826;BME280;11075;47.944;11.776;2022-07-23T01:46:50;94947.00;;;25.40;23.72
21826;BME280;11075;47.944;11.776;2022-07-23T01:49:18;94929.72;;;24.64;24.35
21826;BME280;11075;47.944;11.776;2022-07-23T01:51:57;94958.25;;;25.29;22.16
21826;BME280;11075;47.944;11.776;2022-07-23T01:54:34;94953.88;;;24.76;22.98
21826;BME280;11075;47.944;11.776;2022-07-23T01:57:05;94977.16;;;25.47;21.59
21826;BME280;11075;47.944;11.776;2022-07-23T01:59:32;94948.13;;;23.27;24.10
21826;BME280;11075;47.944;11.776;2022-07-23T02:01:59;94976.28;;;25.34;21.69
21826;BME280;11075;47.944;11.776;2022-07-23T02:04:28;94975.41;;;25.57;21.42
21826;BME280;11075;47.944;11.776;2022-07-23T02:06:55;94969.34;;;24.03;21.93
21826;BME280;11075;47.944;11.776;2022-07-23T02:09:21;94952.31;;;24.75;22.44
21826;BME280;11075;47.944;11.776;2022-07-23T02:11:49;94967.22;;;25.86;20.96
21826;BME280;11075;47.944;11.776;2022-07-23T02:14:18;94942.59;;;24.27;22.77
21826;BME280;11075;47.944;11.776;2022-07-23T02:16:45;94956.25;;;25.82;21.19
21826;BME280;11075;47.944;11.776;2022-07-23T02:19:14;94992.88;;;26.31;20.50
21826;BME280;11075;47.944;11.776;2022-07-23T02:21:40;94973.75;;;26.70;20.60
21826;BME280;11075;47.944;11.776;2022-07-23T02:24:08;94959.13;;;26.98;21.15
21826;BME280;11075;47.944;11.776;2022-07-23T02:26:35;94955.97;;;26.25;20.84
21826;BME280;11075;47.944;11.776;2022-07-23T02:29:06;94936.72;;;25.24;21.72
21826;BME280;11075;47.944;11.776;2022-07-23T02:31:33;94946.53;;;25.61;21.25
21826;BME280;11075;47.944;11.776;2022-07-23T02:34:01;94947.03;;;26.05;21.38
21826;BME280;11075;47.944;11.776;2022-07-23T02:36:28;94958.94;;;24.58;22.32
21826;BME280;11075;47.944;11.776;2022-07-23T02:38:55;94949.78;;;23.98;23.51
21826;BME280;11075;47.944;11.776;2022-07-23T02:41:25;94985.16;;;25.78;21.16
21826;BME280;11075;47.944;11.776;2022-07-23T02:43:52;94962.91;;;24.76;22.43
21826;BME280;11075;47.944;11.776;2022-07-23T02:46:19;94969.53;;;26.36;21.39
21826;BME280;11075;47.944;11.776;2022-07-23T02:48:46;94960.50;;;25.34;22.56
21826;BME280;11075;47.944;11.776;2022-07-23T02:51:13;94959.63;;;24.42;23.16
21826;BME280;11075;47.944;11.776;2022-07-23T02:53:48;94972.03;;;25.49;22.15
21826;BME280;11075;47.944;11.776;2022-07-23T02:56:15;94948.56;;;24.85;23.21
21826;BME280;11075;47.944;11.776;2022-07-23T02:58:41;94958.81;;;24.22;23.82
21826;BME280;11075;47.944;11.776;2022-07-23T03:01:09;94955.75;;;25.71;22.77
21826;BME280;11075;47.944;11.776;2022-07-23T03:03:36;94981.34;;;24.99;22.10
21826;BME280;11075;47.944;11.776;2022-07-23T03:06:04;94981.78;;;26.64;21.16
21826;BME280;11075;47.944;11.776;2022-07-23T03:08:31;94962.19;;;26.29;21.74
21826;BME280;11075;47.944;11.776;2022-07-23T03:10:57;94945.78;;;25.41;22.71
21826;BME280;11075;47.944;11.776;2022-07-23T03:13:24;94937.91;;;24.87;22.83
21826;BME280;11075;47.944;11.776;2022-07-23T03:15:52;94967.53;;;26.65;21.58
21826;BME280;11075;47.944;11.776;2022-07-23T03:18:19;94975.94;;;27.04;21.67
21826;BME280;11075;47.944;11.776;2022-07-23T03:20:46;94976.06;;;26.71;21.45
21826;BME280;11075;47.944;11.776;2022-07-23T03:23:13;94961.63;;;26.06;21.90
21826;BME280;11075;47.944;11.776;2022-07-23T03:25:40;94952.66;;;24.77;22.85
21826;BME280;11075;47.944;11.776;2022-07-23T03:28:07;94981.34;;;26.20;21.49
21826;BME280;11075;47.944;11.776;2022-07-23T03:30:34;94960.50;;;26.03;21.86
21826;BME280;11075;47.944;11.776;2022-07-23T03:33:01;94938.50;;;25.67;23.27
21826;BME280;11075;47.944;11.776;2022-07-23T03:35:28;94952.13;;;26.52;21.95
21826;BME280;11075;47.944;11.776;2022-07-23T03:38:14;94934.13;;;25.17;23.86
21826;BME280;11075;47.944;11.776;2022-07-23T03:40:41;94949.19;;;25.49;22.99
21826;BME280;11075;47.944;11.776;2022-07-23T03:43:08;94954.31;;;25.47;22.14
21826;BME280;11075;47.944;11.776;2022-07-23T03:45:34;94943.53;;;25.20;23.02
21826;BME280;11075;47.944;11.776;2022-07-23T03:48:01;94937.72;;;25.50;22.85
21826;BME280;11075;47.944;11.776;2022-07-23T03:50:29;94932.66;;;26.43;22.10
21826;BME280;11075;47.944;11.776;2022-07-23T03:52:55;94932.88;;;25.87;22.46
21826;BME280;11075;47.944;11.776;2022-07-23T03:55:22;94911.91;;;24.88;23.02
21826;BME280;11075;47.944;11.776;2022-07-23T03:57:49;94905.19;;;24.30;23.92
21826;BME280;11075;47.944;11.776;2022-07-23T04:00:16;94877.22;;;23.68;24.64
21826;BME280;11075;47.944;11.776;2022-07-23T04:02:45;94868.16;;;23.17;25.71
21826;BME280;11075;47.944;11.776;2022-07-23T04:05:12;94874.34;;;24.19;25.07
21826;BME280;11075;47.944;11.776;2022-07-23T04:07:42;94833.84;;;22.11;27.21
21826;BME280;11075;47.944;11.776;2022-07-23T04:10:09;94826.94;;;21.58;28.64
21826;BME280;11075;47.944;11.776;2022-07-23T04:12:36;94821.97;;;21.46;28.74
21826;BME280;11075;47.944;11.776;2022-07-23T04:15:04;94811.81;;;21.43;28.24
21826;BME280;11075;47.944;11.776;2022-07-23T04:17:31;94785.91;;;20.44;30.00
21826;BME280;11075;47.944;11.776;2022-07-23T04:19:58;94761.06;;;20.10;30.92
21826;BME280;11075;47.944;11.776;2022-07-23T04:22:31;94732.41;;;19.13;32.13
21826;BME280;11075;47.944;11.776;2022-07-23T04:24:58;94709.59;;;19.87;31.34
21826;BME280;11075;47.944;11.776;2022-07-23T04:27:25;94714.44;;;21.35;29.40
21826;BME280;11075;47.944;11.776;2022-07-23T04:29:52;94687.47;;;20.88;30.71
21826;BME280;11075;47.944;11.776;2022-07-23T04:32:18;94688.38;;;21.16;29.67
21826;BME280;11075;47.944;11.776;2022-07-23T04:34:46;94727.34;;;22.06;29.26
21826;BME280;11075;47.944;11.776;2022-07-23T04:37:13;94760.47;;;21.88;28.79
21826;BME280;11075;47.944;11.776;2022-07-23T04:39:40;94770.41;;;22.09;29.26
21826;BME280;11075;47.944;11.776;2022-07-23T04:42:07;94761.34;;;22.12;28.53
21826;BME280;11075;47.944;11.776;2022-07-23T04:44:34;94816.94;;;24.93;25.29
21826;BME280;11075;47.944;11.776;2022-07-23T04:47:03;94809.41;;;25.29;25.17
21826;BME280;11075;47.944;11.776;2022-07-23T04:49:30;94792.22;;;23.31;27.64
21826;BME280;11075;47.944;11.776;2022-07-23T04:51:56;94831.34;;;26.81;23.70
21826;BME280;11075;47.944;11.776;2022-07-23T04:54:23;94819.63;;;25.78;25.22
21826;BME280;11075;47.944;11.776;2022-07-23T04:56:50;94828.47;;;27.23;23.22
21826;BME280;11075;47.944;11.776;2022-07-23T04:59:17;94821.28;;;27.00;23.49
21826;BME280;11075;47.944;11.776;2022-07-23T05:01:45;94797.09;;;25.95;25.50
21826;BME280;11075;47.944;11.776;2022-07-23T05:04:12;94817.00;;;27.72;23.17
21826;BME280;11075;47.944;11.776;2022-07-23T05:06:42;94805.00;;;27.15;23.95
21826;BME280;11075;47.944;11.776;2022-07-23T05:09:09;94807.00;;;27.02;24.35
21826;BME280;11075;47.944;11.776;2022-07-23T05:11:36;94813.81;;;26.17;25.01
21826;BME280;11075;47.944;11.776;2022-07-23T05:14:03;94824.03;;;27.38;23.48
21826;BME280;11075;47.944;11.776;2022-07-23T05:16:30;94789.84;;;25.56;26.19
21826;BME280;11075;47.944;11.776;2022-07-23T05:19:02;94820.34;;;26.52;25.36
21826;BME280;11075;47.944;11.776;2022-07-23T05:21:31;94823.19;;;27.76;23.69
21826;BME280;11075;47.944;11.776;2022-07-23T05:23:58;94797.38;;;26.68;25.06
21826;BME280;11075;47.944;11.776;2022-07-23T05:26:26;94793.47;;;27.42;24.20
21826;BME280;11075;47.944;11.776;2022-07-23T05:28:53;94797.19;;;27.95;23.98
21826;BME280;11075;47.944;11.776;2022-07-23T05:31:21;94799.50;;;27.02;24.86
21826;BME280;11075;47.944;11.776;2022-07-23T05:33:48;94802.75;;;26.46;25.66
21826;BME280;11075;47.944;11.776;2022-07-23T05:36:15;94800.34;;;25.90;26.19
21826;BME280;11075;47.944;11.776;2022-07-23T05:38:49;94814.41;;;25.96;25.88
21826;BME280;11075;47.944;11.776;2022-07-23T05:41:16;94842.00;;;27.68;24.30
21826;BME280;11075;47.944;11.776;2022-07-23T05:43:43;94827.84;;;26.52;24.29
21826;BME280;11075;47.944;11.776;2022-07-23T05:46:13;94827.66;;;27.48;24.04
21826;BME280;11075;47.944;11.776;2022-07-23T05:48:42;94823.63;;;26.34;24.37
21826;BME280;11075;47.944;11.776;2022-07-23T05:51:26;94838.41;;;28.80;22.02
21826;BME280;11075;47.944;11.776;2022-07-23T05:53:54;94834.25;;;29.16;22.33
21826;BME280;11075;47.944;11.776;2022-07-23T05:56:25;94808.59;;;28.94;22.78
21826;BME280;11075;47.944;11.776;2022-07-23T05:58:52;94819.78;;;29.98;21.73
21826;BME280;11075;47.944;11.776;2022-07-23T06:01:19;94813.59;;;29.17;22.53
21826;BME280;11075;47.944;11.776;2022-07-23T06:04:00;94800.19;;;27.66;24.43
21826;BME280;11075;47.944;11.776;2022-07-23T06:06:33;94809.31;;;27.28;25.05
21826;BME280;11075;47.944;11.776;2022-07-23T06:09:00;94835.63;;;27.93;24.70
21826;BME280;11075;47.944;11.776;2022-07-23T06:11:28;94843.91;;;27.58;24.57
21826;BME280;11075;47.944;11.776;2022-07-23T06:13:56;94836.69;;;28.52;23.96
21826;BME280;11075;47.944;11.776;2022-07-23T06:16:33;94841.28;;;27.42;24.03
21826;BME280;11075;47.944;11.776;2022-07-23T06:19:00;94870.56;;;29.40;22.51
21826;BME280;11075;47.944;11.776;2022-07-23T06:21:30;94863.72;;;29.72;22.49
21826;BME280;11075;47.944;11.776;2022-07-23T06:24:14;94869.88;;;28.86;23.08
21826;BME280;11075;47.944;11.776;2022-07-23T06:26:41;94870.69;;;28.09;24.16
21826;BME280;11075;47.944;11.776;2022-07-23T06:29:08;94894.16;;;29.13;23.40
21826;BME280;11075;47.944;11.776;2022-07-23T06:31:35;94899.06;;;28.78;23.79
21826;BME280;11075;47.944;11.776;2022-07-23T06:34:02;94885.63;;;27.39;24.60
21826;BME280;11075;47.944;11.776;2022-07-23T06:36:29;94893.94;;;28.33;24.33
21826;BME280;11075;47.944;11.776;2022-07-23T06:38:56;94891.78;;;28.50;23.49
21826;BME280;11075;47.944;11.776;2022-07-23T06:41:23;94886.41;;;27.26;25.29
21826;BME280;11075;47.944;11.776;2022-07-23T06:43:50;94894.91;;;29.05;23.37
21826;BME280;11075;47.944;11.776;2022-07-23T06:46:20;94893.56;;;28.22;23.02
21826;BME280;11075;47.944;11.776;2022-07-23T06:48:48;94878.84;;;25.24;25.29
21826;BME280;11075;47.944;11.776;2022-07-23T06:51:15;94921.69;;;26.68;25.03
21826;BME280;11075;47.944;11.776;2022-07-23T06:53:42;94929.63;;;24.28;25.91
21826;BME280;11075;47.944;11.776;2022-07-23T06:56:09;94892.78;;;24.22;27.16
21826;BME280;11075;47.944;11.776;2022-07-23T06:58:38;94908.03;;;25.22;25.68
21826;BME280;11075;47.944;11.776;2022-07-23T07:01:05;94893.50;;;25.70;25.72
21826;BME280;11075;47.944;11.776;2022-07-23T07:03:32;94913.69;;;26.86;23.69
21826;BME280;11075;47.944;11.776;2022-07-23T07:05:59;94885.53;;;26.33;24.65
21826;BME280;11075;47.944;11.776;2022-07-23T07:08:26;94890.25;;;26.78;23.61
21826;BME280;11075;47.944;11.776;2022-07-23T07:10:53;94873.69;;;26.49;25.75
21826;BME280;11075;47.944;11.776;2022-07-23T07:13:20;94894.78;;;27.74;23.38
21826;BME280;11075;47.944;11.776;2022-07-23T07:15:47;94899.34;;;28.15;22.68
21826;BME280;11075;47.944;11.776;2022-07-23T07:18:14;94907.81;;;26.84;23.79
21826;BME280;11075;47.944;11.776;2022-07-23T07:20:41;94888.50;;;25.81;24.61
21826;BME280;11075;47.944;11.776;2022-07-23T07:23:07;94887.00;;;26.09;24.79
21826;BME280;11075;47.944;11.776;2022-07-23T07:25:34;94903.88;;;27.36;23.43
21826;BME280;11075;47.944;11.776;2022-07-23T07:28:01;94901.75;;;27.78;23.36
21826;BME280;11075;47.944;11.776;2022-07-23T07:30:28;94897.38;;;28.37;22.39
21826;BME280;11075;47.944;11.776;2022-07-23T07:33:00;94860.31;;;25.41;25.38
21826;BME280;11075;47.944;11.776;2022-07-23T07:35:27;94868.41;;;23.77;27.33
21826;BME280;11075;47.944;11.776;2022-07-23T07:37:54;94878.66;;;25.15;25.82
21826;BME280;11075;47.944;11.776;2022-07-23T07:40:21;94911.00;;;27.97;22.83
21826;BME280;11075;47.944;11.776;2022-07-23T07:42:49;94889.13;;;25.56;25.45
21826;BME280;11075;47.944;11.776;2022-07-23T07:45:19;94921.31;;;26.82;23.47
21826;BME280;11075;47.944;11.776;2022-07-23T07:47:46;94936.72;;;27.59;23.15
21826;BME280;11075;47.944;11.776;2022-07-23T07:50:13;94922.41;;;26.85;23.79
21826;BME280;11075;47.944;11.776;2022-07-23T07:52:41;94888.91;;;25.47;25.01
21826;BME280;11075;47.944;11.776;2022-07-23T07:55:08;94887.00;;;24.75;26.02
21826;BME280;11075;47.944;11.776;2022-07-23T07:57:36;94922.75;;;26.29;24.66
21826;BME280;11075;47.944;11.776;2022-07-23T08:00:05;94911.31;;;26.14;24.13
21826;BME280;11075;47.944;11.776;2022-07-23T08:02:43;94912.38;;;27.04;23.89
21826;BME280;11075;47.944;11.776;2022-07-23T08:05:11;94920.63;;;26.49;23.96
21826;BME280;11075;47.944;11.776;2022-07-23T08:07:39;94951.72;;;28.78;21.86
21826;BME280;11075;47.944;11.776;2022-07-23T08:10:10;94906.84;;;25.88;24.69
21826;BME280;11075;47.944;11.776;2022-07-23T08:12:40;94921.38;;;27.33;23.54
21826;BME280;11075;47.944;11.776;2022-07-23T08:15:08;94942.03;;;28.61;22.18
21826;BME280;11075;47.944;11.776;2022-07-23T08:17:40;94896.88;;;25.94;24.97
21826;BME280;11075;47.944;11.776;2022-07-23T08:20:09;94925.56;;;27.76;23.31
21826;BME280;11075;47.944;11.776;2022-07-23T08:25:10;94920.31;;;27.90;23.06
21826;BME280;11075;47.944;11.776;2022-07-23T08:27:37;94943.31;;;29.13;22.03
21826;BME280;11075;47.944;11.776;2022-07-23T08:30:04;94926.88;;;28.31;22.85
21826;BME280;11075;47.944;11.776;2022-07-23T08:32:31;94913.06;;;27.71;24.03
21826;BME280;11075;47.944;11.776;2022-07-23T08:35:11;94928.97;;;27.92;22.01
21826;BME280;11075;47.944;11.776;2022-07-23T08:37:37;94940.22;;;29.82;20.94
21826;BME280;11075;47.944;11.776;2022-07-23T08:40:05;94940.69;;;28.66;21.90
21826;BME280;11075;47.944;11.776;2022-07-23T08:42:32;94933.13;;;29.72;21.15
21826;BME280;11075;47.944;11.776;2022-07-23T08:45:03;94929.41;;;29.35;21.28
21826;BME280;11075;47.944;11.776;2022-07-23T08:47:31;94969.00;;;31.67;18.96
21826;BME280;11075;47.944;11.776;2022-07-23T08:49:58;94932.72;;;28.33;21.99
21826;BME280;11075;47.944;11.776;2022-07-23T08:52:25;94917.47;;;27.18;23.11
21826;BME280;11075;47.944;11.776;2022-07-23T08:54:54;94933.59;;;27.96;22.23
21826;BME280;11075;47.944;11.776;2022-07-23T08:57:21;94946.56;;;28.46;21.47
21826;BME280;11075;47.944;11.776;2022-07-23T08:59:48;94951.97;;;29.46;20.80
21826;BME280;11075;47.944;11.776;2022-07-23T09:02:15;94957.72;;;29.61;20.46
21826;BME280;11075;47.944;11.776;2022-07-23T09:04:42;94915.47;;;27.82;22.42
21826;BME280;11075;47.944;11.776;2022-07-23T09:07:09;94952.94;;;28.77;21.14
21826;BME280;11075;47.944;11.776;2022-07-23T09:09:36;94982.34;;;30.85;19.22
21826;BME280;11075;47.944;11.776;2022-07-23T09:12:05;94968.81;;;30.01;19.78
21826;BME280;11075;47.944;11.776;2022-07-23T09:14:43;94966.69;;;29.03;21.05
21826;BME280;11075;47.944;11.776;2022-07-23T09:19:37;94993.28;;;30.52;19.95
21826;BME280;11075;47.944;11.776;2022-07-23T09:22:18;94984.63;;;29.73;19.74
21826;BME280;11075;47.944;11.776;2022-07-23T09:25:14;94970.28;;;28.91;21.00
21826;BME280;11075;47.944;11.776;2022-07-23T09:27:50;94943.13;;;28.07;22.88
21826;BME280;11075;47.944;11.776;2022-07-23T09:30:23;94953.34;;;27.85;22.75
21826;BME280;11075;47.944;11.776;2022-07-23T09:33:13;94963.75;;;27.30;21.81
21826;BME280;11075;47.944;11.776;2022-07-23T09:35:55;94965.47;;;28.00;21.29
21826;BME280;11075;47.944;11.776;2022-07-23T09:38:25;94969.41;;;29.96;20.33
21826;BME280;11075;47.944;11.776;2022-07-23T09:41:10;94961.59;;;29.01;21.03
21826;BME280;11075;47.944;11.776;2022-07-23T09:43:38;94966.22;;;29.26;20.80
21826;BME280;11075;47.944;11.776;2022-07-23T09:46:27;94952.44;;;29.54;21.27
21826;BME280;11075;47.944;11.776;2022-07-23T09:48:55;94949.25;;;27.51;23.02
21826;BME280;11075;47.944;11.776;2022-07-23T09:51:25;94969.03;;;28.48;22.54
21826;BME280;11075;47.944;11.776;2022-07-23T09:54:04;94970.28;;;28.34;22.26
21826;BME280;11075;47.944;11.776;2022-07-23T09:56:33;94981.09;;;30.86;21.14
21826;BME280;11075;47.944;11.776;2022-07-23T09:59:01;94974.72;;;29.32;21.36
21826;BME280;11075;47.944;11.776;2022-07-23T10:01:38;94952.69;;;29.68;21.45
21826;BME280;11075;47.944;11.776;2022-07-23T10:04:06;94947.50;;;26.49;23.13
21826;BME280;11075;47.944;11.776;2022-07-23T10:07:05;94987.44;;;30.95;19.75
21826;BME280;11075;47.944;11.776;2022-07-23T10:09:51;94954.47;;;29.53;21.34
21826;BME280;11075;47.944;11.776;2022-07-23T10:12:45;94949.13;;;28.62;22.05
21826;BME280;11075;47.944;11.776;2022-07-23T10:15:19;94970.13;;;31.00;20.01
21826;BME280;11075;47.944;11.776;2022-07-23T10:17:46;94969.78;;;30.34;20.17
21826;BME280;11075;47.944;11.776;2022-07-23T10:20:14;94940.03;;;29.27;21.57
21826;BME280;11075;47.944;11.776;2022-07-23T10:23:02;94976.59;;;31.67;19.28
21826;BME280;11075;47.944;11.776;2022-07-23T10:25:58;94984.81;;;31.94;19.10
21826;BME280;11075;47.944;11.776;2022-07-23T10:34:30;94949.88;;;30.82;18.82
21826;BME280;11075;47.944;11.776;2022-07-23T10:37:11;94933.88;;;29.72;19.36
21826;BME280;11075;47.944;11.776;2022-07-23T10:39:47;94944.63;;;30.38;18.82
21826;BME280;11075;47.944;11.776;2022-07-23T10:42:17;94928.44;;;30.18;19.73
21826;BME280;11075;47.944;11.776;2022-07-23T10:44:46;94929.06;;;30.22;19.98
21826;BME280;11075;47.944;11.776;2022-07-23T10:47:30;94922.25;;;28.94;20.77
21826;BME280;11075;47.944;11.776;2022-07-23T10:55:42;94939.69;;;30.05;20.06
21826;BME280;11075;47.944;11.776;2022-07-23T10:58:11;94962.81;;;29.62;19.41
21826;BME280;11075;47.944;11.776;2022-07-23T11:00:38;94946.28;;;29.49;20.13
21826;BME280;11075;47.944;11.776;2022-07-23T11:05:55;94977.25;;;31.86;18.27
21826;BME280;11075;47.944;11.776;2022-07-23T11:08:22;94951.28;;;30.95;18.78
21826;BME280;11075;47.944;11.776;2022-07-23T11:18:57;94948.00;;;31.90;18.69
21826;BME280;11075;47.944;11.776;2022-07-23T11:23:59;94943.94;;;31.16;19.92
21826;BME280;11075;47.944;11.776;2022-07-23T11:31:53;94920.84;;;29.20;21.56
21826;BME280;11075;47.944;11.776;2022-07-23T11:37:04;94937.25;;;29.27;20.25
21826;BME280;11075;47.944;11.776;2022-07-23T11:39:32;94938.97;;;29.74;20.17
21826;BME280;11075;47.944;11.776;2022-07-23T11:42:01;94939.38;;;28.36;20.41
21826;BME280;11075;47.944;11.776;2022-07-23T11:44:29;94935.47;;;27.99;20.88
21826;BME280;11075;47.944;11.776;2022-07-23T11:49:26;94927.03;;;28.71;21.07
21826;BME280;11075;47.944;11.776;2022-07-23T11:52:09;94945.81;;;28.33;20.51
21826;BME280;11075;47.944;11.776;2022-07-23T11:54:59;94953.78;;;29.40;19.27
21826;BME280;11075;47.944;11.776;2022-07-23T11:57:30;94937.53;;;28.76;20.48
21826;BME280;11075;47.944;11.776;2022-07-23T12:00:02;94917.47;;;28.29;21.86
21826;BME280;11075;47.944;11.776;2022-07-23T12:02:48;94902.78;;;27.34;22.08
21826;BME280;11075;47.944;11.776;2022-07-23T12:05:18;94930.28;;;29.63;20.11
21826;BME280;11075;47.944;11.776;2022-07-23T12:11:11;94921.41;;;29.06;20.40
21826;BME280;11075;47.944;11.776;2022-07-23T12:13:41;94938.50;;;30.43;19.38
21826;BME280;11075;47.944;11.776;2022-07-23T12:17:14;94914.88;;;29.62;20.01
21826;BME280;11075;47.944;11.776;2022-07-23T12:20:18;94918.81;;;29.42;20.00
21826;BME280;11075;47.944;11.776;2022-07-23T12:23:25;94915.06;;;27.45;20.47
21826;BME280;11075;47.944;11.776;2022-07-23T12:30:22;94937.03;;;29.22;19.75
21826;BME280;11075;47.944;11.776;2022-07-23T12:32:53;94928.81;;;28.09;20.19
21826;BME280;11075;47.944;11.776;2022-07-23T12:35:21;94925.97;;;30.11;19.81
21826;BME280;11075;47.944;11.776;2022-07-23T12:38:09;94930.81;;;29.79;19.89
21826;BME280;11075;47.944;11.776;2022-07-23T12:51:46;94917.44;;;29.16;19.77
21826;BME280;11075;47.944;11.776;2022-07-23T12:54:40;94908.41;;;28.50;20.33
21826;BME280;11075;47.944;11.776;2022-07-23T12:57:11;94905.66;;;27.55;21.43
21826;BME280;11075;47.944;11.776;2022-07-23T13:00:17;94919.00;;;29.17;20.32
21826;BME280;11075;47.944;11.776;2022-07-23T13:02:48;94918.41;;;29.62;19.91
21826;BME280;11075;47.944;11.776;2022-07-23T13:05:37;94924.53;;;27.95;21.17
21826;BME280;11075;47.944;11.776;2022-07-23T13:08:40;94898.13;;;27.43;21.77
21826;BME280;11075;47.944;11.776;2022-07-23T13:11:46;94913.13;;;27.93;21.83
21826;BME280;11075;47.944;11.776;2022-07-23T13:14:49;94922.47;;;29.30;20.41
21826;BME280;11075;47.944;11.776;2022-07-23T13:18:00;94932.41;;;29.18;20.49
21826;BME280;11075;47.944;11.776;2022-07-23T13:20:42;94945.22;;;31.06;19.23
21826;BME280;11075;47.944;11.776;2022-07-23T13:27:27;94897.66;;;27.07;23.64
21826;BME280;11075;47.944;11.776;2022-07-23T13:30:00;94902.31;;;25.65;24.33
21826;BME280;11075;47.944;11.776;2022-07-23T13:32:27;94908.00;;;26.35;25.47
21826;BME280;11075;47.944;11.776;2022-07-23T13:34:55;94927.72;;;26.79;25.28
21826;BME280;11075;47.944;11.776;2022-07-23T13:37:25;94938.00;;;26.33;25.19
21826;BME280;11075;47.944;11.776;2022-07-23T13:39:52;94956.22;;;28.29;23.97
21826;BME280;11075;47.944;11.776;2022-07-23T13:42:45;94947.06;;;28.53;23.75
21826;BME280;11075;47.944;11.776;2022-07-23T13:45:16;94942.72;;;27.45;24.58
21826;BME280;11075;47.944;11.776;2022-07-23T13:47:43;94937.97;;;27.46;25.37
21826;BME280;11075;47.944;11.776;2022-07-23T13:50:10;94934.25;;;28.69;24.36
21826;BME280;11075;47.944;11.776;2022-07-23T13:52:40;94913.97;;;28.50;24.38
21826;BME280;11075;47.944;11.776;2022-07-23T13:55:07;94934.84;;;29.47;23.94
21826;BME280;11075;47.944;11.776;2022-07-23T13:57:34;94948.66;;;30.28;23.64
21826;BME280;11075;47.944;11.776;2022-07-23T14:00:03;94936.56;;;29.54;24.34
21826;BME280;11075;47.944;11.776;2022-07-23T14:02:31;94953.91;;;30.35;23.60
21826;BME280;11075;47.944;11.776;2022-07-23T14:04:59;94959.16;;;30.78;22.72
21826;BME280;11075;47.944;11.776;2022-07-23T14:07:27;94935.25;;;30.63;23.56
21826;BME280;11075;47.944;11.776;2022-07-23T14:09:53;94934.59;;;30.77;22.92
21826;BME280;11075;47.944;11.776;2022-07-23T14:12:21;94928.13;;;30.25;23.85
21826;BME280;11075;47.944;11.776;2022-07-23T14:14:59;94920.03;;;27.25;26.09